Time;durP1;ratioP1;P1;durP2;ratioP2;P2;SDS_P1;SDS_P2;PMS_P1;PMS_P2;Temp;Humidity;BMP_temperature;BMP_pressure;BME280_temperature;BME280_humidity;BME280_pressure;Samples;Min_cycle;Max_cycle;Signal;HPM_P1;HPM_P2
2022/10/17 00:00:06;;;;;;;7.85;5.97;;;;;;;14.48;72.43;101505.06;5024118;28;20102;-80
2022/10/17 00:02:34;;;;;;;11.75;6.90;;;;;;;14.48;74.34;101507.72;5002295;28;20068;-79
2022/10/17 00:05:01;;;;;;;9.93;6.53;;;;;;;14.44;74.06;101512.31;5036385;28;20065;-82
2022/10/17 00:07:29;;;;;;;12.30;6.22;;;;;;;14.46;73.75;101514.88;5005867;28;20060;-82
2022/10/17 00:09:57;;;;;;;8.90;6.32;;;;;;;14.47;73.42;101508.63;4997771;28;20084;-83
2022/10/17 00:12:24;;;;;;;11.48;6.18;;;;;;;14.47;74.01;101511.28;5015778;28;20046;-82
2022/10/17 00:14:52;;;;;;;10.82;6.18;;;;;;;14.49;73.75;101512.06;4992622;28;20052;-83
2022/10/17 00:17:19;;;;;;;13.60;6.25;;;;;;;14.50;73.76;101511.13;5008222;28;20038;-82
2022/10/17 00:19:47;;;;;;;9.20;5.60;;;;;;;14.55;74.12;101519.66;4991550;28;20114;-83
2022/10/17 00:22:15;;;;;;;10.18;5.53;;;;;;;14.56;73.93;101507.25;4991131;28;20045;-83
2022/10/17 00:24:42;;;;;;;10.38;5.55;;;;;;;14.56;73.53;101494.84;5009291;28;20086;-84
2022/10/17 00:27:09;;;;;;;13.80;5.93;;;;;;;14.57;74.62;101493.91;5002033;28;20034;-83
2022/10/17 00:29:37;;;;;;;10.63;5.28;;;;;;;14.52;74.52;101498.63;4989709;28;20106;-83
2022/10/17 00:32:05;;;;;;;11.35;5.95;;;;;;;14.49;75.36;101508.56;5001530;28;20041;-84
2022/10/17 00:34:32;;;;;;;9.32;5.72;;;;;;;14.49;77.06;101511.22;5003398;28;20401;-83
2022/10/17 00:37:00;;;;;;;9.63;5.05;;;;;;;14.43;76.65;101510.59;4975784;28;20088;-83
2022/10/17 00:39:27;;;;;;;7.68;4.47;;;;;;;14.42;76.43;101506.25;4993465;28;20081;-84
2022/10/17 00:41:55;;;;;;;6.60;4.07;;;;;;;14.43;75.94;101496.50;4999657;28;20041;-83
2022/10/17 00:44:28;;;;;;;6.70;4.72;;;;;;;14.46;75.49;101488.38;4980270;28;20049;-83
2022/10/17 00:46:57;;;;;;;7.38;4.80;;;;;;;14.44;75.45;101495.56;4988732;28;20043;-83
2022/10/17 00:49:28;;;;;;;10.77;5.18;;;;;;;14.44;75.73;101500.84;4978345;28;20057;-82
2022/10/17 00:51:59;;;;;;;6.60;4.57;;;;;;;14.41;75.78;101506.38;5010124;28;20037;-82
2022/10/17 00:54:31;;;;;;;7.13;4.15;;;;;;;14.39;75.62;101505.59;4998319;28;20061;-82
2022/10/17 00:56:59;;;;;;;6.60;4.38;;;;;;;14.38;75.70;101514.50;4994668;28;21482;-83
2022/10/17 00:59:27;;;;;;;7.90;4.03;;;;;;;14.40;74.96;101515.22;4995104;28;20512;-82
2022/10/17 01:02:05;;;;;;;8.55;4.90;;;;;;;14.44;74.81;101516.75;4999489;28;20054;-82
2022/10/17 01:04:37;;;;;;;7.53;4.55;;;;;;;14.43;75.14;101521.19;4986075;28;20387;-82
2022/10/17 01:07:04;;;;;;;5.00;3.83;;;;;;;14.41;75.53;101519.63;4986870;28;20046;-81
2022/10/17 01:09:31;;;;;;;6.35;4.25;;;;;;;14.41;75.30;101507.22;4986131;28;20038;-83
2022/10/17 01:12:17;;;;;;;5.55;4.28;;;;;;;14.39;77.75;101503.78;5009093;28;20054;-82
2022/10/17 01:14:57;;;;;;;6.13;4.25;;;;;;;14.36;77.18;101498.69;4996976;28;20112;-82
2022/10/17 01:17:39;;;;;;;5.47;3.50;;;;;;;14.35;77.07;101493.47;5006854;28;20489;-83
2022/10/17 01:20:48;;;;;;;6.05;3.85;;;;;;;14.35;77.98;101499.63;5002463;28;20069;-81
2022/10/17 01:23:40;;;;;;;7.70;3.72;;;;;;;14.38;77.14;101495.94;5001951;28;20125;-81
2022/10/17 01:26:52;;;;;;;5.57;4.10;;;;;;;14.38;77.02;101491.50;4994604;28;20058;-82
2022/10/17 01:29:42;;;;;;;6.55;3.72;;;;;;;14.38;77.14;101491.50;4999012;28;20110;-82
2022/10/17 01:32:15;;;;;;;4.88;3.17;;;;;;;14.34;77.38;101483.84;5005636;28;20038;-83
2022/10/17 01:34:54;;;;;;;6.00;3.83;;;;;;;14.31;78.60;101484.84;5009104;28;20045;-82
2022/10/17 01:37:32;;;;;;;6.80;2.97;;;;;;;14.26;78.04;101489.59;5000114;28;20092;-82
2022/10/17 01:40:20;;;;;;;5.82;3.47;;;;;;;14.26;78.39;101479.00;4979766;28;20029;-81
2022/10/17 01:42:56;;;;;;;5.50;3.22;;;;;;;14.28;77.39;101479.78;5012482;28;20060;-82
2022/10/17 01:45:23;;;;;;;5.05;3.47;;;;;;;14.30;77.03;101477.88;5011691;28;20048;-82
2022/10/17 01:47:51;;;;;;;4.00;3.03;;;;;;;14.30;77.03;101472.56;5020827;28;20452;-83
2022/10/17 01:50:23;;;;;;;5.28;3.22;;;;;;;14.31;77.23;101476.06;4993521;28;20050;-83
2022/10/17 01:52:55;;;;;;;4.85;2.95;;;;;;;14.33;77.23;101472.38;4977698;28;20068;-83
2022/10/17 01:55:27;;;;;;;5.22;2.67;;;;;;;14.36;77.27;101476.63;5027177;28;20038;-83
2022/10/17 01:58:03;;;;;;;5.10;3.15;;;;;;;14.35;77.38;101474.94;4993710;28;20069;-82
2022/10/17 02:00:30;;;;;;;;;;;;;;;14.36;77.83;101473.97;5007236;28;20034;-83
2022/10/17 02:03:09;;;;;;;3.17;2.80;;;;;;;14.34;77.79;101479.38;4994413;28;19913;-82
2022/10/17 02:05:40;;;;;;;5.38;3.50;;;;;;;14.35;77.84;101472.28;5008587;28;20086;-82
2022/10/17 02:08:07;;;;;;;3.83;2.70;;;;;;;14.33;77.86;101468.88;4994909;28;20146;-82
2022/10/17 02:10:41;;;;;;;8.05;2.75;;;;;;;14.34;77.68;101468.78;4999194;28;20125;-82
2022/10/17 02:13:19;;;;;;;4.82;2.78;;;;;;;14.34;77.48;101467.94;5023877;28;20041;-82
2022/10/17 02:15:54;;;;;;;5.93;2.50;;;;;;;14.36;78.17;101477.50;5008751;28;20923;-82
2022/10/17 02:18:34;;;;;;;3.15;2.78;;;;;;;14.39;80.63;101469.34;5008005;28;20050;-83
2022/10/17 02:21:07;;;;;;;4.78;3.00;;;;;;;14.43;82.39;101472.66;5011654;28;20046;-83
2022/10/17 02:23:42;;;;;;;3.58;2.88;;;;;;;14.43;83.32;101467.38;4977783;28;20062;-82
2022/10/17 02:26:22;;;;;;;4.93;2.67;;;;;;;14.41;83.21;101470.13;5027475;28;20709;-82
2022/10/17 02:28:56;;;;;;;3.60;2.33;;;;;;;14.40;82.20;101472.84;4996917;28;20042;-83
2022/10/17 02:31:35;;;;;;;6.57;2.53;;;;;;;14.40;81.80;101473.69;5005850;28;20072;-82
2022/10/17 02:34:08;;;;;;;4.60;2.70;;;;;;;14.40;81.82;101475.50;4998409;28;20073;-82
2022/10/17 02:36:40;;;;;;;5.03;2.33;;;;;;;14.39;82.61;101469.34;5008272;28;20042;-82
2022/10/17 02:39:08;;;;;;;4.05;2.58;;;;;;;14.38;82.61;101470.31;4987804;28;20497;-82
2022/10/17 02:41:38;;;;;;;4.18;2.80;;;;;;;14.39;82.45;101464.06;4995650;28;20046;-82
2022/10/17 02:44:07;;;;;;;5.07;2.53;;;;;;;14.41;82.12;101459.53;4999085;28;20145;-82
2022/10/17 02:46:36;;;;;;;3.50;2.60;;;;;;;14.43;82.35;101462.06;5004853;28;20064;-81
2022/10/17 02:49:12;;;;;;;3.55;2.50;;;;;;;14.44;83.32;101458.47;4992704;28;20168;-82
2022/10/17 02:51:56;;;;;;;4.90;3.10;;;;;;;14.41;82.58;101456.88;4995629;28;20054;-83
2022/10/17 02:54:37;;;;;;;3.03;2.53;;;;;;;14.42;82.79;101452.44;4978054;28;20065;-83
2022/10/17 02:57:42;;;;;;;6.50;2.90;;;;;;;14.44;83.70;101458.47;5006202;28;20216;-82
2022/10/17 03:00:12;;;;;;;7.00;2.80;;;;;;;14.40;83.59;101462.25;5012916;28;20048;-82
2022/10/17 03:02:41;;;;;;;2.97;2.65;;;;;;;14.37;83.56;101462.47;5005739;28;20717;-82
2022/10/17 03:05:10;;;;;;;3.75;3.10;;;;;;;14.40;85.13;101460.44;5020991;28;20058;-82
2022/10/17 03:07:37;;;;;;;4.05;3.05;;;;;;;14.40;84.95;101459.59;5014853;28;20040;-81
2022/10/17 03:13:35;;;;;;;3.40;2.85;;;;;;;14.37;83.76;101457.16;5022250;28;20078;-82
2022/10/17 03:16:06;;;;;;;4.05;2.90;;;;;;;14.41;85.58;101453.38;5009831;28;20048;-81
2022/10/17 03:18:33;;;;;;;5.70;2.80;;;;;;;14.43;86.17;101454.97;4987369;28;20057;-81
2022/10/17 03:21:01;;;;;;;3.85;2.63;;;;;;;14.42;86.73;101457.72;5010045;28;20087;-82
2022/10/17 03:23:28;;;;;;;3.53;2.47;;;;;;;14.41;86.69;101459.53;4980112;28;20073;-82
2022/10/17 03:25:56;;;;;;;5.28;2.85;;;;;;;14.42;87.84;101461.22;4999978;28;21057;-80
2022/10/17 03:28:23;;;;;;;5.53;3.08;;;;;;;14.42;88.81;101461.22;5001993;28;20054;-82
2022/10/17 03:30:51;;;;;;;4.78;2.90;;;;;;;14.43;89.48;101459.44;4990717;28;20033;-82
2022/10/17 03:33:18;;;;;;;4.43;3.25;;;;;;;14.43;89.79;101456.78;4986447;28;20052;-83
2022/10/17 03:35:46;;;;;;;4.50;2.80;;;;;;;14.44;89.96;101450.53;5021043;28;20039;-81
2022/10/17 03:38:13;;;;;;;5.20;2.72;;;;;;;14.44;89.93;101447.88;4995110;28;20050;-82
2022/10/17 03:44:48;;;;;;;5.18;2.88;;;;;;;14.42;90.33;101444.47;5023538;28;20048;-82
2022/10/17 03:47:15;;;;;;;5.97;3.15;;;;;;;14.41;90.04;101448.94;4990122;28;20077;-82
2022/10/17 03:49:43;;;;;;;6.15;2.78;;;;;;;14.43;91.20;101454.13;4996884;28;20599;-82
2022/10/17 03:52:11;;;;;;;5.45;3.05;;;;;;;14.44;91.87;101454.03;4995087;28;20038;-82
2022/10/17 03:54:39;;;;;;;5.80;2.47;;;;;;;14.42;92.79;101453.28;5011361;28;20054;-82
2022/10/17 03:57:07;;;;;;;5.18;3.38;;;;;;;14.40;92.28;101443.72;4988146;28;20096;-82
2022/10/17 03:59:34;;;;;;;3.90;2.67;;;;;;;14.41;92.74;101448.09;4988762;28;20057;-81
2022/10/17 04:02:02;;;;;;;3.70;2.80;;;;;;;14.40;92.99;101439.25;4996364;28;20112;-81
2022/10/17 04:04:29;;;;;;;4.80;3.35;;;;;;;14.40;92.96;101439.25;4993857;28;20050;-82
2022/10/17 04:06:57;;;;;;;5.55;2.75;;;;;;;14.40;92.97;101441.91;4971080;28;20535;-81
2022/10/17 04:09:24;;;;;;;5.47;2.60;;;;;;;14.39;91.98;101447.31;5006138;28;20030;-82
2022/10/17 04:11:52;;;;;;;6.43;3.00;;;;;;;14.37;91.74;101441.28;5033901;28;20595;-83
2022/10/17 04:14:19;;;;;;;4.53;2.92;;;;;;;14.38;92.55;101433.22;5018237;28;20072;-83
2022/10/17 04:20:16;;;;;;;5.70;3.38;;;;;;;14.37;94.85;101423.56;5025320;28;20073;-83
2022/10/17 04:22:44;;;;;;;6.10;3.38;;;;;;;14.39;95.74;101423.47;4986768;28;20057;-82
2022/10/17 04:25:12;;;;;;;5.10;2.97;;;;;;;14.39;96.57;101421.66;5003900;28;20367;-82
2022/10/17 04:27:39;;;;;;;4.40;3.15;;;;;;;14.35;95.91;101429.91;5003004;28;20531;-83
2022/10/17 04:30:07;;;;;;;3.85;2.88;;;;;;;14.34;96.66;101426.41;5004245;28;21237;-84
2022/10/17 04:32:37;;;;;;;6.15;3.58;;;;;;;14.35;96.13;101427.25;5011412;28;20077;-83
2022/10/17 04:35:04;;;;;;;7.82;3.00;;;;;;;14.35;96.94;101421.97;4996301;28;20050;-82
2022/10/17 04:37:32;;;;;;;3.80;2.80;;;;;;;14.36;96.99;101426.28;5016745;28;20037;-84
2022/10/17 04:39:59;;;;;;;3.90;3.33;;;;;;;14.36;97.35;101426.28;4992986;28;20046;-83
2022/10/17 04:42:28;;;;;;;6.35;3.58;;;;;;;14.34;97.33;101426.41;4993289;28;20048;-83
2022/10/17 04:44:56;;;;;;;3.95;3.03;;;;;;;14.35;97.43;101424.59;5003201;28;20107;-80
2022/10/17 04:47:23;;;;;;;5.82;3.53;;;;;;;14.33;96.38;101426.50;5004777;28;20069;-82
2022/10/17 04:49:51;;;;;;;5.95;2.88;;;;;;;14.34;96.80;101430.84;5013350;28;20109;-82
2022/10/17 04:52:18;;;;;;;5.85;3.47;;;;;;;14.32;95.57;101428.31;4998310;28;20054;-82
2022/10/17 04:54:46;;;;;;;4.10;3.33;;;;;;;14.32;95.52;101433.63;4988315;28;20077;-83
2022/10/17 04:57:14;;;;;;;5.03;2.95;;;;;;;14.32;95.70;101438.91;5025136;28;20018;-83
2022/10/17 04:59:41;;;;;;;8.85;3.20;;;;;;;14.29;94.48;101427.66;4990606;28;20042;-83
2022/10/17 05:02:08;;;;;;;6.53;3.38;;;;;;;14.25;93.58;101432.28;4983883;28;20054;-83
2022/10/17 05:04:36;;;;;;;3.47;2.78;;;;;;;14.27;93.29;101426.88;5014597;28;20062;-83
2022/10/17 05:07:04;;;;;;;5.10;2.92;;;;;;;14.21;92.88;101422.81;5018329;28;20615;-83
2022/10/17 05:09:31;;;;;;;4.45;3.25;;;;;;;14.21;94.05;101419.31;4987837;28;20042;-82
2022/10/17 05:11:58;;;;;;;7.97;3.17;;;;;;;14.22;94.40;101427.16;5002844;28;20092;-83
2022/10/17 05:14:26;;;;;;;5.35;3.03;;;;;;;14.22;93.85;101429.81;4997398;28;20048;-83
2022/10/17 05:16:55;;;;;;;6.70;3.67;;;;;;;14.24;94.42;101430.56;5001785;28;20065;-83
2022/10/17 05:19:23;;;;;;;6.43;3.28;;;;;;;14.24;95.87;101424.44;4973974;28;20046;-83
2022/10/17 05:22:34;;;;;;;6.82;3.22;;;;;;;14.24;96.43;101427.94;5004734;28;20452;-88
2022/10/17 05:25:07;;;;;;;5.97;3.10;;;;;;;14.22;97.82;101432.44;5002688;28;20114;-84
2022/10/17 05:27:35;;;;;;;5.72;3.70;;;;;;;14.21;98.46;101435.19;5015084;28;20054;-84
2022/10/17 05:30:03;;;;;;;5.43;3.85;;;;;;;14.20;99.70;101431.72;5012519;28;20045;-84
2022/10/17 05:32:31;;;;;;;5.10;3.60;;;;;;;14.17;100.00;101431.88;4994459;28;20065;-84
2022/10/17 05:34:58;;;;;;;4.25;3.80;;;;;;;14.13;100.00;101427.72;4985008;28;20130;-85
2022/10/17 05:37:29;;;;;;;5.57;3.50;;;;;;;14.10;100.00;101433.22;4976297;28;20057;-84
2022/10/17 05:40:00;;;;;;;6.88;3.70;;;;;;;14.09;100.00;101428.84;4976517;28;20501;-87
2022/10/17 05:42:28;;;;;;;4.05;3.65;;;;;;;14.06;100.00;101424.59;4975011;28;20065;-86
2022/10/17 05:44:56;;;;;;;4.30;3.47;;;;;;;14.08;100.00;101422.69;4983843;28;20038;-87
2022/10/17 05:47:27;;;;;;;5.13;3.53;;;;;;;14.08;100.00;101421.84;4980892;28;20063;-86
2022/10/17 05:49:55;;;;;;;6.47;3.97;;;;;;;14.07;100.00;101421.00;4977067;28;20247;-86
2022/10/17 05:52:22;;;;;;;5.78;3.55;;;;;;;14.08;100.00;101429.78;4988033;28;20102;-87
2022/10/17 05:54:54;;;;;;;5.05;3.80;;;;;;;14.07;100.00;101426.31;4986267;28;20054;-88
2022/10/17 05:57:32;;;;;;;5.32;3.72;;;;;;;14.07;100.00;101430.75;4993092;28;20504;-84
2022/10/17 05:59:59;;;;;;;5.90;3.63;;;;;;;14.07;100.00;101433.41;4996385;28;20618;-82
2022/10/17 06:02:27;;;;;;;7.90;3.80;;;;;;;14.07;100.00;101442.19;4991521;28;20444;-82
2022/10/17 06:04:55;;;;;;;4.90;4.13;;;;;;;14.04;100.00;101442.38;4996798;28;20088;-82
2022/10/17 06:07:22;;;;;;;5.97;3.80;;;;;;;14.03;100.00;101438.03;5000411;28;20046;-83
2022/10/17 06:09:50;;;;;;;8.75;3.67;;;;;;;14.02;100.00;101441.63;4986392;28;20046;-82
2022/10/17 06:12:18;;;;;;;5.97;3.95;;;;;;;14.03;100.00;101443.31;4992463;28;20141;-83
2022/10/17 06:14:45;;;;;;;6.95;4.10;;;;;;;14.04;100.00;101455.59;4977941;28;20050;-83
2022/10/17 06:17:14;;;;;;;10.00;4.45;;;;;;;14.03;100.00;101464.50;5007663;28;20076;-82
2022/10/17 06:19:43;;;;;;;7.68;4.03;;;;;;;14.03;100.00;101466.28;5011653;28;20041;-82
2022/10/17 06:22:11;;;;;;;6.03;4.57;;;;;;;14.07;100.00;101473.13;5004598;28;20085;-82
2022/10/17 06:24:41;;;;;;;6.38;4.30;;;;;;;14.05;100.00;101469.69;5021166;28;20057;-83
2022/10/17 06:27:08;;;;;;;7.05;4.03;;;;;;;14.09;100.00;101479.16;5019505;28;20045;-82
2022/10/17 06:29:38;;;;;;;7.43;4.60;;;;;;;14.06;100.00;101474.91;5009218;28;20052;-83
2022/10/17 06:32:06;;;;;;;8.95;4.82;;;;;;;14.07;100.00;101473.97;5007968;28;20038;-83
2022/10/17 06:34:39;;;;;;;7.15;4.75;;;;;;;14.10;100.00;101483.53;4997855;28;20054;-82
2022/10/17 06:37:06;;;;;;;6.28;5.00;;;;;;;14.07;100.00;101476.59;4994866;28;20061;-82
2022/10/17 06:39:34;;;;;;;9.82;4.07;;;;;;;14.11;100.00;101482.56;4995710;28;20026;-83
2022/10/17 06:42:03;;;;;;;5.97;4.97;;;;;;;14.11;100.00;101491.38;5001024;28;20076;-82
2022/10/17 06:44:30;;;;;;;10.35;4.57;;;;;;;14.10;100.00;101491.47;5014461;28;20032;-83
2022/10/17 06:46:59;;;;;;;6.68;4.65;;;;;;;14.11;100.00;101482.56;5006482;28;20052;-82
2022/10/17 06:49:26;;;;;;;9.95;4.68;;;;;;;14.13;100.00;101489.47;5006414;28;20065;-83
2022/10/17 06:51:54;;;;;;;8.20;4.78;;;;;;;14.16;100.00;101491.94;4997867;28;20046;-83
2022/10/17 06:54:22;;;;;;;14.13;4.70;;;;;;;14.15;100.00;101492.03;4994485;28;20074;-82
2022/10/17 06:56:49;;;;;;;7.13;4.97;;;;;;;14.15;100.00;101498.19;4989581;28;20089;-83
2022/10/17 06:59:16;;;;;;;7.97;4.05;;;;;;;14.18;100.00;101490.06;5013598;28;20570;-82
2022/10/17 07:01:44;;;;;;;12.57;4.78;;;;;;;14.26;100.00;101489.59;4973817;28;20042;-83
2022/10/17 07:04:14;;;;;;;6.22;4.50;;;;;;;14.30;100.00;101493.75;4987060;28;20523;-83
2022/10/17 07:06:42;;;;;;;8.55;4.35;;;;;;;14.33;100.00;101487.44;4991319;28;20050;-82
2022/10/17 07:09:10;;;;;;;8.68;4.65;;;;;;;14.36;100.00;101485.47;4991471;28;20045;-83
2022/10/17 07:11:39;;;;;;;9.98;5.90;;;;;;;14.38;100.00;101498.59;4995867;28;20092;-83
2022/10/17 07:14:06;;;;;;;9.32;4.45;;;;;;;14.40;100.00;101486.94;4992648;28;20052;-82
2022/10/17 07:16:34;;;;;;;5.20;4.13;;;;;;;14.45;100.00;101494.59;5018031;28;20029;-83
2022/10/17 07:19:01;;;;;;;7.65;4.72;;;;;;;14.54;100.00;101502.03;5005778;28;20058;-82
2022/10/17 07:21:30;;;;;;;7.72;4.22;;;;;;;14.58;100.00;101513.28;4966856;28;20050;-82
2022/10/17 07:24:06;;;;;;;4.68;4.00;;;;;;;14.62;100.00;101510.34;5000764;28;20042;-81
2022/10/17 07:26:34;;;;;;;7.05;5.10;;;;;;;14.64;100.00;101512.94;5019571;28;20056;-82
2022/10/17 07:29:02;;;;;;;6.38;4.38;;;;;;;14.68;100.00;101515.28;4995490;28;20112;-82
2022/10/17 07:31:29;;;;;;;7.45;4.28;;;;;;;14.75;100.00;101520.22;4990427;28;20044;-82
2022/10/17 07:33:58;;;;;;;6.45;4.20;;;;;;;14.79;100.00;101519.06;5009933;28;20050;-82
2022/10/17 07:36:26;;;;;;;6.88;4.15;;;;;;;14.84;100.00;101520.47;4992308;28;20077;-81
2022/10/17 07:38:54;;;;;;;8.27;4.68;;;;;;;14.88;100.00;101515.84;4997728;28;20100;-81
2022/10/17 07:41:21;;;;;;;7.28;4.53;;;;;;;14.94;100.00;101507.50;4988387;28;20056;-82
2022/10/17 07:43:49;;;;;;;8.07;4.47;;;;;;;14.97;100.00;101509.97;5014396;28;20050;-82
2022/10/17 07:46:16;;;;;;;5.18;3.70;;;;;;;15.05;100.00;101514.78;5013455;28;20049;-82
2022/10/17 07:48:44;;;;;;;12.63;4.43;;;;;;;15.10;100.00;101507.38;5009099;28;20703;-82
2022/10/17 07:51:11;;;;;;;7.53;4.90;;;;;;;15.14;100.00;101512.41;5002230;28;20038;-82
2022/10/17 07:53:39;;;;;;;6.68;3.88;;;;;;;15.23;100.00;101512.75;5000652;28;20046;-82
2022/10/17 07:56:12;;;;;;;7.90;4.80;;;;;;;15.29;100.00;101526.47;4975705;28;20048;-81
2022/10/17 07:58:40;;;;;;;8.98;4.15;;;;;;;15.35;100.00;101520.75;5013839;28;20125;-81
2022/10/17 08:01:13;;;;;;;6.43;4.30;;;;;;;15.42;100.00;101522.06;5023340;28;20137;-81
2022/10/17 08:03:43;;;;;;;5.33;3.90;;;;;;;15.48;100.00;101523.47;5017723;28;20055;-81
2022/10/17 08:06:11;;;;;;;6.80;3.83;;;;;;;15.53;100.00;101525.81;5021956;28;20049;-81
2022/10/17 08:08:40;;;;;;;8.27;4.00;;;;;;;15.57;100.00;101514.06;4974701;28;20072;-84
2022/10/17 08:11:12;;;;;;;8.02;4.20;;;;;;;15.63;100.00;101519.84;4994419;28;20037;-82
2022/10/17 08:13:42;;;;;;;5.15;4.18;;;;;;;15.73;100.00;101513.94;4990651;28;20056;-83
2022/10/17 08:16:11;;;;;;;9.32;4.70;;;;;;;15.78;100.00;101512.69;5000339;28;20052;-82
2022/10/17 08:18:40;;;;;;;5.00;3.85;;;;;;;15.89;100.00;101514.59;4988227;28;20452;-82
2022/10/17 08:21:21;;;;;;;8.07;3.95;;;;;;;16.02;99.77;101511.97;4985975;28;20042;-82
2022/10/17 08:23:50;;;;;;;7.05;4.03;;;;;;;16.07;98.84;101518.66;4993604;28;20397;-83
2022/10/17 08:26:18;;;;;;;8.65;3.70;;;;;;;16.12;99.03;101519.25;5001405;28;20029;-83
2022/10/17 08:28:46;;;;;;;6.00;3.55;;;;;;;16.21;98.05;101515.09;4993532;28;20454;-83
2022/10/17 08:31:19;;;;;;;5.13;3.55;;;;;;;16.29;97.98;101514.56;5011745;28;20045;-83
2022/10/17 08:33:48;;;;;;;6.88;3.30;;;;;;;16.39;96.67;101516.50;4997645;28;20056;-82
2022/10/17 08:36:18;;;;;;;7.10;3.30;;;;;;;16.43;97.00;101512.63;4980849;28;20050;-82
2022/10/17 08:38:46;;;;;;;8.98;4.28;;;;;;;16.48;96.49;101512.34;5004025;28;20069;-82
2022/10/17 08:41:43;;;;;;;6.82;3.33;;;;;;;16.52;96.68;101505.84;4999802;28;20064;-82
2022/10/17 08:44:33;;;;;;;5.85;4.07;;;;;;;16.66;95.80;101508.41;5020603;28;20473;-83
2022/10/17 08:47:03;;;;;;;5.50;3.53;;;;;;;16.77;95.33;101507.66;5006160;28;20041;-83
2022/10/17 08:49:30;;;;;;;6.05;3.80;;;;;;;16.84;94.70;101510.72;5005626;28;20047;-83
2022/10/17 08:52:03;;;;;;;9.38;4.22;;;;;;;16.92;94.37;101503.06;5021599;28;20065;-83
2022/10/17 08:54:40;;;;;;;3.92;2.80;;;;;;;17.00;94.94;101497.19;4996036;28;20065;-83
2022/10/17 08:57:16;;;;;;;7.40;3.15;;;;;;;17.08;94.05;101500.16;4995426;28;20092;-83
2022/10/17 08:59:44;;;;;;;9.90;3.42;;;;;;;17.14;93.83;101497.88;5002177;28;20402;-82
2022/10/17 09:02:28;;;;;;;7.32;3.25;;;;;;;17.23;93.08;101504.34;5007656;28;20109;-82
2022/10/17 09:09:02;;;;;;;6.22;3.47;;;;;;;17.44;91.95;101508.09;5017274;28;20026;-83
2022/10/17 09:11:43;;;;;;;7.97;3.15;;;;;;;17.61;91.18;101516.66;4986914;28;20088;-81
2022/10/17 09:14:35;;;;;;;4.70;3.08;;;;;;;17.75;90.27;101508.53;4999948;28;20030;-83
2022/10/17 09:17:27;;;;;;;8.63;3.35;;;;;;;17.79;90.76;101506.50;5007069;28;20045;-83
2022/10/17 09:20:19;;;;;;;5.72;2.83;;;;;;;17.89;90.77;101515.47;4997107;28;20623;-83
2022/10/17 09:22:57;;;;;;;8.90;3.00;;;;;;;17.96;89.64;101514.03;4988068;28;20038;-83
2022/10/17 09:25:26;;;;;;;6.57;2.95;;;;;;;18.12;88.81;101517.22;4994035;28;20053;-84
2022/10/17 09:28:09;;;;;;;6.13;3.33;;;;;;;18.22;88.32;101514.72;4982637;28;20045;-82
2022/10/17 09:30:39;;;;;;;5.35;3.03;;;;;;;18.31;87.53;101516.66;5011428;28;20099;-82
2022/10/17 09:33:17;;;;;;;8.52;3.15;;;;;;;18.42;86.84;101507.84;5012666;28;20080;-81
2022/10/17 09:36:07;;;;;;;6.57;2.92;;;;;;;18.53;86.28;101499.84;5011361;28;20075;-82
2022/10/17 09:38:41;;;;;;;7.28;2.88;;;;;;;18.66;85.98;101497.91;4991627;28;20080;-83
2022/10/17 09:41:15;;;;;;;6.60;3.25;;;;;;;18.75;85.11;101496.38;4999350;28;20362;-84
2022/10/17 09:44:16;;;;;;;6.40;3.38;;;;;;;18.92;83.59;101497.69;4993690;28;20073;-84
2022/10/17 09:47:32;;;;;;;8.45;3.70;;;;;;;19.01;82.99;101502.28;4994022;28;20497;-83
2022/10/17 09:50:01;;;;;;;8.82;3.70;;;;;;;19.09;82.73;101499.84;4984660;28;20113;-82
2022/10/17 09:52:46;;;;;;;5.80;3.38;;;;;;;19.22;81.72;101505.03;5004613;28;20061;-82
2022/10/17 09:55:36;;;;;;;4.55;3.10;;;;;;;19.32;81.45;101497.97;5026408;28;20039;-82
2022/10/17 09:58:05;;;;;;;5.22;3.20;;;;;;;19.42;80.65;101500.75;5025286;28;20221;-83
2022/10/17 10:00:39;;;;;;;5.82;2.70;;;;;;;19.56;79.63;101487.09;5024677;28;20043;-82
2022/10/17 10:03:27;;;;;;;7.68;3.17;;;;;;;19.65;79.63;101502.38;5019888;28;20026;-83
2022/10/17 10:06:04;;;;;;;8.73;3.25;;;;;;;19.81;78.89;101501.94;5019577;28;20066;-84
2022/10/17 10:08:35;;;;;;;5.47;2.95;;;;;;;19.89;78.48;101493.28;5017946;28;20101;-83
2022/10/17 10:11:07;;;;;;;7.93;3.05;;;;;;;20.01;78.34;101492.25;5024345;28;20064;-83
2022/10/17 10:13:40;;;;;;;6.82;3.17;;;;;;;20.13;76.68;101499.22;5000613;28;20094;-83
2022/10/17 10:16:14;;;;;;;5.80;2.72;;;;;;;20.35;74.79;101495.53;5014157;28;20042;-82
2022/10/17 10:18:42;;;;;;;10.07;3.35;;;;;;;20.48;74.87;101498.88;5041657;28;20042;-83
2022/10/17 10:21:19;;;;;;;10.48;3.30;;;;;;;20.57;74.45;101501.72;4998208;28;20025;-83
2022/10/17 10:24:12;;;;;;;4.00;2.50;;;;;;;20.65;72.47;101496.56;5014373;28;20046;-82
2022/10/17 10:26:46;;;;;;;3.38;2.22;;;;;;;20.80;71.01;101486.31;4994700;28;20106;-83
2022/10/17 10:29:20;;;;;;;7.60;2.70;;;;;;;20.85;71.18;101497.47;5011026;28;20042;-84
2022/10/17 10:31:50;;;;;;;6.65;2.67;;;;;;;20.89;71.28;101496.22;5035062;28;20026;-82
2022/10/17 10:34:25;;;;;;;9.35;2.83;;;;;;;20.93;71.20;101498.47;5005169;28;20047;-83
2022/10/17 10:37:05;;;;;;;4.43;2.55;;;;;;;21.04;70.75;101504.72;5010966;23;20053;-63
2022/10/17 10:39:35;;;;;;;6.22;2.78;;;;;;;21.16;71.13;101503.59;5035574;28;20053;-61
2022/10/17 10:42:05;;;;;;;6.75;2.75;;;;;;;21.23;70.70;101496.72;5019781;28;20052;-63
2022/10/17 10:44:32;;;;;;;6.13;2.63;;;;;;;21.37;69.31;101506.22;5012393;28;20767;-63
2022/10/17 10:47:23;;;;;;;11.18;2.78;;;;;;;21.52;68.88;101496.78;5016012;28;20049;-62
2022/10/17 10:49:52;;;;;;;5.35;2.53;;;;;;;21.73;68.77;101500.19;4996841;28;20526;-63
2022/10/17 10:52:31;;;;;;;6.95;2.78;;;;;;;21.92;66.81;101509.19;5009170;28;20041;-63
2022/10/17 10:55:04;;;;;;;6.57;2.92;;;;;;;22.06;66.23;101494.50;4992144;28;20112;-63
2022/10/17 10:57:34;;;;;;;5.63;3.45;;;;;;;22.18;65.20;101480.81;5013673;28;20111;-62
2022/10/17 11:00:14;;;;;;;5.95;2.47;;;;;;;22.29;64.76;101484.31;5012380;28;20552;-63
2022/10/17 11:02:51;;;;;;;4.45;2.40;;;;;;;22.44;64.65;101488.22;5010728;28;20049;-64
2022/10/17 11:05:25;;;;;;;6.35;2.45;;;;;;;22.62;63.35;101483.78;4989674;28;20061;-63
2022/10/17 11:07:59;;;;;;;6.93;2.83;;;;;;;22.79;63.92;101489.38;4994893;28;20100;-63
2022/10/17 11:10:59;;;;;;;3.25;1.77;;;;;;;23.04;62.10;101485.16;5002978;28;20061;-63
2022/10/17 11:13:30;;;;;;;8.10;2.78;;;;;;;23.22;61.26;101499.44;4990759;28;20225;-62
2022/10/17 11:16:03;;;;;;;4.45;2.75;;;;;;;23.31;60.27;101476.19;5010406;28;20053;-63
2022/10/17 11:18:43;;;;;;;10.38;3.20;;;;;;;23.49;60.21;101480.56;5003087;28;20557;-62
2022/10/17 11:21:23;;;;;;;6.10;2.55;;;;;;;23.70;58.92;101469.53;4991601;28;20054;-63
2022/10/17 11:24:07;;;;;;;7.93;2.30;;;;;;;23.84;57.51;101473.53;5010163;28;20046;-64
2022/10/17 11:26:45;;;;;;;10.88;2.47;;;;;;;24.04;56.72;101462.56;4991468;28;20522;-63
2022/10/17 11:29:12;;;;;;;3.70;1.77;;;;;;;24.24;56.57;101462.19;5000244;28;20053;-62
2022/10/17 11:31:51;;;;;;;3.75;2.00;;;;;;;24.42;55.76;101462.16;5008255;28;20073;-62
2022/10/17 11:34:24;;;;;;;6.05;2.28;;;;;;;24.60;54.90;101467.47;5011152;28;20057;-68
2022/10/17 11:36:55;;;;;;;7.97;2.15;;;;;;;24.81;55.49;101460.78;5011823;28;20532;-63
2022/10/17 11:39:31;;;;;;;5.25;2.20;;;;;;;25.11;55.03;101456.72;4997345;28;20133;-63
2022/10/17 11:42:06;;;;;;;7.20;2.10;;;;;;;25.35;54.50;101453.22;5010435;28;20065;-63
2022/10/17 11:44:38;;;;;;;6.47;3.08;;;;;;;25.57;53.16;101459.81;5003545;28;20060;-63
2022/10/17 11:47:16;;;;;;;7.30;2.28;;;;;;;25.69;52.53;101464.69;5002694;28;20052;-63
2022/10/17 11:49:46;;;;;;;4.20;2.10;;;;;;;25.87;50.60;101466.41;4992563;28;20050;-65
2022/10/17 11:52:35;;;;;;;4.72;1.73;;;;;;;26.01;53.37;101466.56;5018567;28;20046;-63
2022/10/17 11:55:25;;;;;;;5.60;3.40;;;;;;;26.16;51.74;101458.63;5008797;28;20069;-64
2022/10/17 11:58:17;;;;;;;5.82;2.95;;;;;;;26.18;51.28;101450.34;5003384;28;20469;-63
2022/10/17 12:01:07;;;;;;;6.20;2.20;;;;;;;26.23;50.37;101450.66;5005088;28;20066;-63